Flight Track Log - Related Links

Times and Time Zones

All times are in EDT time to prevent confusion due to time zone crossing. See the CTL13 flight status page for this flight to view local times or setup timezone preferences in your user account.


Time Position Orientation Groundspeed Altitude Reporting Facility
EDT Latitude Longitude Course Direction KTS MPH feet Rate Location/Type
Mon 08:20:21 PM 39.9167 -86.3000 303° West 164 189 2,300  Level Indianapolis TRACON
Mon 08:21:03 PM 39.9333 -86.3333 303° West 174 200 2,700 471 Climbing Indianapolis TRACON
Mon 08:22:03 PM 39.9833 -86.3667 333° Northwest 178 205 3,100 476 Climbing Indianapolis TRACON
Mon 08:23:09 PM 40.0167 -86.4167 311° West 175 201 3,700 412 Climbing Indianapolis TRACON
Mon 08:25:00 PM 40.0732 -86.5013 311° West  Level FlightAware Approximate
Mon 08:28:07 PM 40.1986 -86.6244 320° Northwest 179 206 5,600  Level Chicago Center
Mon 08:28:35 PM 40.2169 -86.6536 309° West 179 206 5,800 290 Climbing Chicago Center
Mon 08:29:09 PM 40.2336 -86.6689 325° Northwest 177 204 5,900 197 Climbing Chicago Center
Mon 08:29:36 PM 40.2508 -86.6967 309° West 177 204 6,000 97 Climbing Chicago Center
Mon 08:30:11 PM 40.2692 -86.7133 325° Northwest 177 204 6,000 100 Level Chicago Center
Mon 08:30:36 PM 40.2908 -86.7428 314° West 180 207 6,100  Climbing Chicago Center
Mon 08:31:12 PM 40.3131 -86.7678 319° Northwest 180 207 6,000 -98 Descending Chicago Center
Mon 08:31:37 PM 40.3267 -86.7886 311° West 182 209 6,000  Level Chicago Center
Mon 08:32:00 PM 40.3090 -86.8031 320° Northwest  Level FlightAware Approximate
Mon 08:32:14 PM 40.3508 -86.8111 325° Northwest 180 207 6,000  Level Chicago Center
Mon 08:32:32 PM 40.3564 -86.8289 292° West 180 207 6,000  Level Chicago Center
Mon 08:33:00 PM 40.3447 -86.8420 320° Northwest  Level FlightAware Approximate
Mon 08:33:32 PM 40.3967 -86.8722 321° Northwest 178 205 6,000  Level Chicago Center
Mon 08:34:18 PM 40.4208 -86.9003 319° Northwest 177 204 6,000  Level Chicago Center
Mon 08:34:39 PM 40.4367 -86.9186 319° Northwest 175 201 6,000  Level Chicago Center
Mon 08:35:20 PM 40.4586 -86.9408 322° Northwest 177 204 6,000 98 Level Chicago Center
Mon 08:35:40 PM 40.4725 -86.9619 311° West 179 206 6,100  Climbing Chicago Center
Mon 08:36:22 PM 40.4939 -86.9864 319° Northwest 177 204 6,000 -100 Descending Chicago Center
Mon 08:36:40 PM 40.5103 -87.0111 311° West 178 205 6,000  Level Chicago Center
Mon 08:37:23 PM 40.5433 -87.0283 338° Northwest 177 204 6,000  Level Chicago Center
Mon 08:37:41 PM 40.5592 -87.0364 339° North 182 209 6,000  Level Chicago Center
Mon 08:38:25 PM 40.5917 -87.0519 340° North 184 212 6,000  Level Chicago Center
Mon 08:38:41 PM 40.6044 -87.0586 338° Northwest 183 211 6,000  Level Chicago Center
Mon 08:39:42 PM 40.6583 -87.0650 355° North 187 215 6,000  Level Chicago Center
Mon 08:40:36 PM 40.7042 -87.0681 357° North 187 215 6,000  Level Chicago Center
Mon 08:41:30 PM 40.7444 -87.0719 356° North 187 215 6,000  Level Chicago Center
Mon 08:42:32 PM 40.7967 -87.0772 356° North 189 217 6,000  Level Chicago Center
Mon 08:43:34 PM 40.8539 -87.0997 343° North 185 213 6,000  Level Chicago Center
Mon 08:44:36 PM 40.8992 -87.1308 333° Northwest 187 215 6,000  Level Chicago Center
Mon 08:45:37 PM 40.9425 -87.1636 330° Northwest 182 209 6,000 -49 Level Chicago Center
Mon 08:46:39 PM 40.9883 -87.1950 333° Northwest 184 212 5,900 -48 Descending Chicago Center
Mon 08:47:41 PM 41.0325 -87.2256 332° Northwest 182 209 5,900  Level Chicago Center
Mon 08:48:42 PM 41.0761 -87.2561 332° Northwest 181 208 5,900  Level Chicago Center
Mon 08:49:44 PM 41.1300 -87.2922 333° Northwest 181 208 5,900 -242 Level Chicago Center
Mon 08:50:46 PM 41.1775 -87.3261 332° Northwest 191 220 5,400 -537 Descending Chicago Center
Mon 08:51:47 PM 41.2275 -87.3617 332° Northwest 201 231 4,800 -634 Descending Chicago Center
Mon 08:52:49 PM 41.2781 -87.4000 330° Northwest 207 238 4,100 -387 Descending Chicago Center
Mon 08:53:51 PM 41.3267 -87.4381 330° Northwest 207 238 4,000 -97 Descending Chicago Center
Mon 08:54:53 PM 41.3739 -87.4731 331° Northwest 203 234 3,900  Descending Chicago Center
Mon 08:55:54 PM 41.4292 -87.5133 331° Northwest 196 226 4,000  Climbing Chicago Center
Mon 08:56:56 PM 41.4728 -87.5511 327° Northwest 191 220 3,900 -48 Descending Chicago Center
Mon 08:57:58 PM 41.5064 -87.6036 311° West 189 217 3,900  Level Chicago Center
Mon 08:58:59 PM 41.5369 -87.6589 306° West 187 215 3,900  Level Chicago Center
Mon 09:00:02 PM 41.5686 -87.7131 308° West 187 215 3,900  Level Chicago Center
Mon 09:01:04 PM 41.6078 -87.7769 309° West 187 215 3,900  Level Chicago Center
Mon 09:02:10 PM 41.6500 -87.8333 315° West 187 215 3,900 -91 Level Chicago TRACON
Mon 09:03:16 PM 41.6833 -87.9000 304° West 192 221 3,700 -454 Descending Chicago TRACON
Mon 09:04:09 PM 41.7167 -87.9253 330° Northwest 205 236 3,000 -947 Descending Chicago Center
Mon 09:05:10 PM 41.7642 -87.8872 31° Northeast 207 238 1,900 -634 Descending Chicago Center
Mon 09:06:12 PM 41.7983 -87.8258 53° Northeast 186 214 1,700 -347 Descending Chicago Center
Mon 09:07:11 PM 41.8000 -87.7833 87° East 130 150 1,200 -508 Descending Chicago TRACON

Login

Don't have an account? Register now (free) for customized features, flight alerts, and more!